Time;durP1;ratioP1;P1;durP2;ratioP2;P2;SDS_P1;SDS_P2;PMS_P1;PMS_P2;Temp;Humidity;BMP_temperature;BMP_pressure;BME280_temperature;BME280_humidity;BME280_pressure;Samples;Min_cycle;Max_cycle;Signal;HPM_P1;HPM_P2
2023/11/18 00:00:11;;;;;;;14.20;9.80;;;;;;;3.41;87.80;98890.61;221448;1301;22581;-77
2023/11/18 00:05:14;;;;;;;11.00;9.60;;;;;;;3.40;87.98;98889.31;221383;1300;22565;-76
2023/11/18 00:10:17;;;;;;;12.80;9.70;;;;;;;3.41;87.87;98891.85;221303;1301;22586;-78
2023/11/18 00:15:20;;;;;;;12.00;9.90;;;;;;;3.41;88.17;98894.95;221370;1303;22572;-76
2023/11/18 00:20:23;;;;;;;11.50;9.40;;;;;;;3.43;88.04;98899.46;221395;1295;22568;-77
2023/11/18 00:25:27;;;;;;;11.00;9.40;;;;;;;3.41;88.08;98900.71;221596;1303;22570;-77
2023/11/18 00:30:30;;;;;;;11.20;9.30;;;;;;;3.42;88.10;98906.02;221250;1303;22579;-80
2023/11/18 00:35:33;;;;;;;11.60;9.90;;;;;;;3.42;88.14;98909.84;221489;1303;22718;-77
2023/11/18 00:40:36;;;;;;;10.50;8.50;;;;;;;3.41;88.03;98908.70;221308;1297;22591;-77
2023/11/18 00:45:38;;;;;;;10.30;9.00;;;;;;;3.37;88.28;98917.06;221510;1300;24264;-76
2023/11/18 00:50:40;;;;;;;10.90;9.40;;;;;;;3.33;88.51;98916.17;221437;1301;22566;-77
2023/11/18 00:55:43;;;;;;;12.60;10.50;;;;;;;3.31;88.70;98916.37;221324;1303;22569;-77
2023/11/18 01:00:45;;;;;;;9.50;8.50;;;;;;;3.32;88.85;98916.32;221367;1298;25402;-76
2023/11/18 01:05:47;;;;;;;6.60;6.00;;;;;;;3.31;88.82;98920.60;221444;1298;22585;-76
2023/11/18 01:10:49;;;;;;;7.20;6.40;;;;;;;3.31;88.56;98914.55;221402;1301;22596;-76
2023/11/18 01:15:51;;;;;;;5.60;5.10;;;;;;;3.29;88.81;98917.60;221409;1301;22605;-76
2023/11/18 01:20:54;;;;;;;4.50;4.10;;;;;;;3.25;88.40;98917.11;221495;1301;22590;-78
2023/11/18 01:25:57;;;;;;;4.40;3.80;;;;;;;3.15;88.28;98913.11;221509;1301;22562;-76
2023/11/18 01:31:00;;;;;;;4.80;4.40;;;;;;;3.00;88.01;98908.73;221520;1300;22574;-77
2023/11/18 01:36:04;;;;;;;5.10;4.50;;;;;;;2.88;88.21;98906.70;221509;1303;22591;-77
2023/11/18 01:41:06;;;;;;;5.90;5.30;;;;;;;2.81;88.54;98905.38;221825;1298;22574;-77
2023/11/18 01:46:10;;;;;;;6.30;5.50;;;;;;;2.78;88.34;98905.36;221327;1300;202371;-77
2023/11/18 01:51:14;;;;;;;8.10;7.30;;;;;;;2.76;88.73;98904.45;221641;1303;22705;-76
2023/11/18 01:56:16;;;;;;;8.30;7.20;;;;;;;2.76;88.93;98904.85;221546;1300;22705;-76
2023/11/18 02:01:19;;;;;;;9.90;7.70;;;;;;;2.77;88.78;98901.61;221491;1300;22620;-76
2023/11/18 02:06:21;;;;;;;10.90;7.70;;;;;;;2.80;88.99;98907.09;221449;1301;22560;-77
2023/11/18 02:11:32;;;;;;;8.90;7.20;;;;;;;2.84;88.80;98900.45;221598;1301;22575;-76
2023/11/18 02:16:35;;;;;;;11.10;8.30;;;;;;;2.86;89.12;98895.02;221455;1302;22698;-76
2023/11/18 02:21:38;;;;;;;13.80;9.20;;;;;;;2.91;89.62;98895.69;221325;1303;23059;-77
2023/11/18 02:26:40;;;;;;;12.30;9.60;;;;;;;2.98;89.67;98899.56;221303;1301;22587;-77
2023/11/18 02:31:46;;;;;;;12.30;9.70;;;;;;;3.02;89.32;98901.48;221353;1298;24961;-77
2023/11/18 02:36:50;;;;;;;12.80;10.10;;;;;;;3.04;89.37;98904.08;221448;1296;22565;-76
2023/11/18 02:41:56;;;;;;;15.90;12.60;;;;;;;3.06;89.32;98908.08;221715;1300;23458;-77
2023/11/18 02:46:59;;;;;;;17.50;12.60;;;;;;;3.10;89.34;98905.80;221547;1301;22581;-77
2023/11/18 02:52:02;;;;;;;17.40;13.60;;;;;;;3.13;89.33;98913.35;221335;1298;25335;-77
2023/11/18 02:57:04;;;;;;;13.90;11.70;;;;;;;3.14;89.45;98915.82;221397;1301;22592;-77
2023/11/18 03:02:07;;;;;;;12.80;10.20;;;;;;;3.16;89.43;98920.02;221486;1303;22586;-76
2023/11/18 03:07:09;;;;;;;6.80;6.10;;;;;;;3.16;89.37;98923.27;221299;1301;22698;-77
2023/11/18 03:12:13;;;;;;;6.70;6.00;;;;;;;3.13;89.37;98923.73;221293;1301;22677;-77
2023/11/18 03:17:15;;;;;;;6.60;5.90;;;;;;;3.10;89.55;98931.00;221373;1298;22762;-76
2023/11/18 03:22:17;;;;;;;6.20;5.30;;;;;;;3.05;89.58;98936.30;221546;1298;23658;-77
2023/11/18 03:27:19;;;;;;;7.40;6.30;;;;;;;3.04;89.43;98939.77;221559;1294;22689;-76
2023/11/18 03:32:21;;;;;;;8.40;7.30;;;;;;;3.04;89.23;98940.80;221319;1298;22567;-76
2023/11/18 03:37:23;;;;;;;8.60;7.50;;;;;;;3.06;89.46;98947.73;221517;1303;24227;-75
2023/11/18 03:42:27;;;;;;;6.20;5.60;;;;;;;3.07;89.35;98949.20;221350;1294;22614;-75
2023/11/18 03:47:30;;;;;;;4.50;3.60;;;;;;;3.06;89.54;98953.28;221380;1301;22600;-76
2023/11/18 03:52:34;;;;;;;4.30;3.90;;;;;;;3.01;89.34;98954.59;221489;1295;22575;-74
2023/11/18 03:57:37;;;;;;;5.00;4.50;;;;;;;2.97;89.03;98961.23;221514;1298;22577;-75
2023/11/18 04:02:39;;;;;;;5.60;5.00;;;;;;;2.95;89.54;98963.00;221478;1298;23614;-77
2023/11/18 04:07:42;;;;;;;6.10;5.50;;;;;;;2.94;89.53;98962.42;221355;1301;22571;-76
2023/11/18 04:12:48;;;;;;;5.70;5.00;;;;;;;2.93;89.59;98963.87;221447;1298;25386;-76
2023/11/18 04:17:50;;;;;;;5.70;5.10;;;;;;;2.94;89.68;98964.31;221524;1301;23087;-76
2023/11/18 04:22:52;;;;;;;5.90;5.20;;;;;;;2.97;90.08;98964.23;221506;1299;22892;-76
2023/11/18 04:27:54;;;;;;;5.10;4.60;;;;;;;2.98;90.09;98964.63;221508;1301;23131;-76
2023/11/18 04:32:56;;;;;;;5.70;5.00;;;;;;;2.99;90.21;98961.93;221289;1300;22607;-76
2023/11/18 04:37:58;;;;;;;5.10;4.60;;;;;;;3.00;90.11;98964.77;221258;1299;22609;-76
2023/11/18 04:43:01;;;;;;;5.10;4.60;;;;;;;3.01;89.99;98967.16;221376;1301;22583;-75
2023/11/18 04:48:04;;;;;;;5.10;4.60;;;;;;;3.00;90.45;98967.39;221487;1301;23043;-76
2023/11/18 04:53:08;;;;;;;5.60;4.80;;;;;;;3.01;90.46;98976.23;221531;1301;22564;-77
2023/11/18 04:58:10;;;;;;;4.80;4.40;;;;;;;3.02;90.39;98978.19;221520;1301;22569;-77
2023/11/18 05:03:12;;;;;;;4.90;4.30;;;;;;;3.03;90.49;98975.68;221506;1301;22561;-76
2023/11/18 05:08:19;;;;;;;5.00;4.50;;;;;;;3.04;90.86;98974.70;221531;1300;22579;-76
2023/11/18 05:13:21;;;;;;;3.50;3.20;;;;;;;3.06;90.49;98979.08;221522;1301;22566;-76
2023/11/18 05:18:24;;;;;;;2.00;1.90;;;;;;;3.06;90.36;98987.08;221352;1301;26163;-77
2023/11/18 05:23:29;;;;;;;2.10;2.00;;;;;;;3.03;90.10;98990.64;221435;1301;22625;-77
2023/11/18 05:28:32;;;;;;;1.50;1.40;;;;;;;2.93;90.17;98994.27;221332;1303;22634;-76
2023/11/18 05:33:35;;;;;;;1.30;1.20;;;;;;;2.79;90.18;99001.95;221402;1301;22577;-76
2023/11/18 05:38:38;;;;;;;1.60;1.50;;;;;;;2.65;90.26;99010.98;221495;1302;22575;-77
2023/11/18 05:43:40;;;;;;;2.40;2.20;;;;;;;2.56;90.23;99016.45;221506;1301;22603;-76
2023/11/18 05:48:44;;;;;;;3.80;2.80;;;;;;;2.53;90.65;99022.70;221500;1301;22567;-76
2023/11/18 05:53:47;;;;;;;4.50;3.90;;;;;;;2.53;90.75;99026.36;221429;1298;22579;-77
2023/11/18 05:58:49;;;;;;;4.20;3.80;;;;;;;2.56;91.39;99035.46;221438;1298;22558;-78
2023/11/18 06:03:51;;;;;;;3.80;3.30;;;;;;;2.59;91.26;99043.90;221491;1301;22844;-76
2023/11/18 06:08:53;;;;;;;4.30;3.90;;;;;;;2.60;91.09;99044.52;221842;1301;22747;-77
2023/11/18 06:13:56;;;;;;;6.90;5.10;;;;;;;2.59;91.23;99045.08;221371;1303;22635;-77
2023/11/18 06:18:58;;;;;;;6.20;5.10;;;;;;;2.63;91.63;99045.15;221530;1300;25467;-78
2023/11/18 06:24:04;;;;;;;7.70;5.30;;;;;;;2.65;91.14;99048.21;221558;1298;25274;-77
2023/11/18 06:29:06;;;;;;;7.70;5.40;;;;;;;2.67;91.52;99059.72;221326;1301;24302;-78
2023/11/18 06:34:08;;;;;;;9.10;6.60;;;;;;;2.69;91.64;99064.73;221368;1301;22583;-79
2023/11/18 06:39:12;;;;;;;9.60;7.10;;;;;;;2.72;91.22;99075.11;221375;1298;22584;-77
2023/11/18 06:44:18;;;;;;;14.50;8.90;;;;;;;2.74;91.11;99081.36;221274;1301;22584;-77
2023/11/18 06:49:20;;;;;;;13.30;9.00;;;;;;;2.76;90.49;99091.59;221393;1301;22591;-78
2023/11/18 06:54:24;;;;;;;14.20;9.50;;;;;;;2.80;90.65;99096.33;221468;1303;22608;-76
2023/11/18 06:59:26;;;;;;;13.90;10.30;;;;;;;2.86;90.35;99104.33;221490;1300;23224;-77
2023/11/18 07:04:28;;;;;;;15.60;10.60;;;;;;;2.88;90.56;99115.08;221554;1298;22558;-76
2023/11/18 07:09:35;;;;;;;18.20;11.20;;;;;;;2.87;90.35;99125.26;221518;1301;22689;-77
2023/11/18 07:14:37;;;;;;;16.50;11.70;;;;;;;2.89;90.18;99128.10;221341;1303;22627;-76
2023/11/18 07:19:40;;;;;;;18.20;12.60;;;;;;;2.90;90.38;99134.38;221422;1301;22545;-76
2023/11/18 07:24:43;;;;;;;19.90;12.60;;;;;;;2.92;89.76;99135.85;221506;1301;22571;-76
2023/11/18 07:29:45;;;;;;;23.20;14.60;;;;;;;2.92;90.09;99146.27;221287;1303;22575;-76
2023/11/18 07:34:47;;;;;;;22.60;14.40;;;;;;;2.93;89.88;99152.97;221184;1295;22604;-75
2023/11/18 07:39:49;;;;;;;20.90;14.00;;;;;;;2.93;89.80;99156.09;221331;1285;22560;-77
2023/11/18 07:44:51;;;;;;;19.00;12.40;;;;;;;2.93;89.50;99149.32;221371;1302;22588;-77
2023/11/18 07:49:53;;;;;;;18.50;12.70;;;;;;;3.01;89.75;99148.63;221483;1298;23012;-74
2023/11/18 07:54:56;;;;;;;19.70;13.40;;;;;;;3.12;89.36;99151.80;221197;1285;22625;-75
2023/11/18 08:00:05;;;;;;;20.10;12.90;;;;;;;3.19;89.64;99155.57;221309;1280;22610;-73
2023/11/18 08:05:15;;;;;;;18.90;13.20;;;;;;;3.26;89.46;99162.85;220938;1279;22633;-77
2023/11/18 08:10:18;;;;;;;19.40;12.70;;;;;;;3.30;88.95;99171.53;221031;1285;22590;-76
2023/11/18 08:15:21;;;;;;;18.20;13.00;;;;;;;3.30;89.03;99170.27;220932;1301;22610;-77
2023/11/18 08:20:25;;;;;;;18.10;12.60;;;;;;;3.32;88.53;99165.39;220539;1301;25246;-79
2023/11/18 08:25:28;;;;;;;17.70;12.10;;;;;;;3.28;88.44;99167.47;220832;1291;23992;-78
2023/11/18 08:30:30;;;;;;;20.20;13.20;;;;;;;3.17;88.63;99167.42;220786;1295;22629;-79
2023/11/18 08:35:33;;;;;;;20.10;12.90;;;;;;;3.04;88.59;99170.10;220786;1294;22497;-76
2023/11/18 08:40:36;;;;;;;20.10;14.10;;;;;;;2.99;89.12;99182.04;220579;1298;22712;-77
2023/11/18 08:45:39;;;;;;;19.10;12.80;;;;;;;2.92;89.18;99182.10;220913;1285;23112;-79
2023/11/18 08:51:02;;;;;;;23.40;13.80;;;;;;;2.86;89.22;99194.23;221350;1302;22542;-78
2023/11/18 08:56:05;;;;;;;24.90;15.30;;;;;;;2.81;89.38;99202.69;221191;1304;22601;-79
2023/11/18 09:01:14;;;;;;;25.50;16.10;;;;;;;2.80;89.56;99214.04;221093;1300;22733;-78
2023/11/18 09:06:33;;;;;;;19.10;12.20;;;;;;;2.86;89.65;99218.45;221176;1284;22602;-76
2023/11/18 09:11:39;;;;;;;18.30;11.90;;;;;;;2.91;89.73;99217.64;221505;1295;22572;-76
2023/11/18 09:16:43;;;;;;;16.40;10.40;;;;;;;2.92;89.49;99224.54;221121;1285;22602;-77
2023/11/18 09:21:48;;;;;;;18.10;11.90;;;;;;;2.89;89.34;99224.77;221040;1295;22625;-77
2023/11/18 09:26:51;;;;;;;18.40;11.80;;;;;;;2.89;89.33;99233.88;221209;1289;22594;-77
2023/11/18 09:31:54;;;;;;;14.50;9.80;;;;;;;2.89;89.67;99238.58;221090;1298;22615;-76
2023/11/18 09:36:59;;;;;;;11.50;8.10;;;;;;;2.89;89.88;99243.20;221102;1295;22583;-78
2023/11/18 09:42:02;;;;;;;9.50;7.00;;;;;;;2.86;89.37;99242.77;221160;1283;22637;-77
2023/11/18 09:47:09;;;;;;;8.90;6.70;;;;;;;2.83;89.06;99243.56;221075;1296;22610;-76
2023/11/18 09:52:19;;;;;;;9.30;6.80;;;;;;;2.82;89.45;99254.24;221147;1301;22563;-81
2023/11/18 09:57:43;;;;;;;8.90;6.80;;;;;;;2.81;89.07;99255.73;220988;1294;22992;-81
2023/11/18 10:02:49;;;;;;;6.10;5.20;;;;;;;2.79;89.20;99265.45;221085;1291;22575;-78
2023/11/18 10:07:53;;;;;;;7.20;5.70;;;;;;;2.77;89.18;99269.11;221561;1285;22708;-78
2023/11/18 10:12:57;;;;;;;7.20;5.70;;;;;;;2.75;89.15;99269.80;221189;1282;22691;-78
2023/11/18 10:18:09;;;;;;;5.60;5.00;;;;;;;2.68;88.90;99280.95;221234;1296;22583;-77
2023/11/18 10:23:21;;;;;;;8.50;6.20;;;;;;;2.61;88.41;99292.38;221221;1293;22580;-77
2023/11/18 10:28:28;;;;;;;6.20;5.30;;;;;;;2.59;88.46;99296.71;221305;1285;22574;-77
2023/11/18 10:33:31;;;;;;;5.00;4.50;;;;;;;2.63;88.54;99294.77;221309;1292;25457;-77
2023/11/18 10:38:49;;;;;;;8.00;7.10;;;;;;;2.66;88.39;99311.58;221291;1301;26335;-78
2023/11/18 10:44:15;;;;;;;8.90;7.90;;;;;;;2.60;88.39;99321.96;221199;1280;25523;-78
2023/11/18 10:49:18;;;;;;;6.40;5.80;;;;;;;2.54;88.32;99337.41;221210;1302;22607;-77
2023/11/18 10:54:21;;;;;;;8.30;7.40;;;;;;;2.46;88.03;99341.71;221381;1285;22567;-77
2023/11/18 10:59:23;;;;;;;7.30;6.60;;;;;;;2.38;88.02;99337.87;221142;1292;22608;-78
2023/11/18 11:04:25;;;;;;;7.70;5.60;;;;;;;2.34;88.25;99346.35;221240;1301;23044;-78
2023/11/18 11:09:27;;;;;;;4.70;4.20;;;;;;;2.38;88.17;99349.15;221284;1298;22582;-78
2023/11/18 11:14:37;;;;;;;5.50;4.30;;;;;;;2.45;88.09;99351.20;221061;1297;23098;-77
2023/11/18 11:19:55;;;;;;;5.10;4.60;;;;;;;2.55;87.85;99353.54;221168;1301;22571;-77
2023/11/18 11:25:35;;;;;;;5.50;4.30;;;;;;;2.62;87.56;99361.48;220993;1299;25556;-78
2023/11/18 11:30:59;;;;;;;6.30;4.70;;;;;;;2.61;87.16;99363.34;220872;1296;22608;-81
2023/11/18 11:36:03;;;;;;;6.40;5.20;;;;;;;2.53;87.07;99372.46;221005;1295;22977;-78
2023/11/18 11:41:08;;;;;;;6.80;5.10;;;;;;;2.47;86.97;99391.00;220954;1299;23334;-77
2023/11/18 11:46:11;;;;;;;7.00;5.40;;;;;;;2.45;86.99;99393.97;221190;1299;25503;-77
2023/11/18 11:51:31;;;;;;;6.40;5.70;;;;;;;2.47;87.14;99405.80;220918;1298;22610;-76
2023/11/18 11:56:59;;;;;;;5.00;4.40;;;;;;;2.48;86.52;99406.94;220700;1296;24409;-77
2023/11/18 12:02:07;;;;;;;5.50;4.90;;;;;;;2.47;86.57;99406.84;220984;1298;22559;-78
2023/11/18 12:07:14;;;;;;;6.30;5.60;;;;;;;2.47;86.44;99409.95;220933;1303;22602;-78
2023/11/18 12:12:26;;;;;;;6.80;5.70;;;;;;;2.47;86.51;99417.73;220999;1303;24433;-77
2023/11/18 12:17:31;;;;;;;7.60;6.80;;;;;;;2.47;86.28;99422.31;221277;1286;22683;-78
2023/11/18 12:23:14;;;;;;;7.40;6.50;;;;;;;2.46;86.51;99424.97;221384;1303;22693;-77
2023/11/18 12:28:21;;;;;;;8.50;7.00;;;;;;;2.48;86.51;99418.77;221673;1299;22583;-77
2023/11/18 12:33:26;;;;;;;7.80;7.00;;;;;;;2.56;86.65;99412.91;221637;1303;22582;-78
2023/11/18 12:38:40;;;;;;;8.10;6.70;;;;;;;2.67;86.45;99417.73;221689;1303;22606;-78
2023/11/18 12:43:53;;;;;;;7.20;6.50;;;;;;;2.79;86.30;99429.30;221548;1301;22637;-78
2023/11/18 12:48:59;;;;;;;7.30;6.60;;;;;;;2.88;86.54;99436.45;221649;1302;22663;-77
2023/11/18 12:54:02;;;;;;;8.00;6.50;;;;;;;2.93;86.26;99438.48;221571;1301;22587;-77
2023/11/18 12:59:06;;;;;;;5.90;5.30;;;;;;;2.93;85.83;99443.87;221699;1303;24317;-77
2023/11/18 13:04:09;;;;;;;6.20;5.60;;;;;;;2.84;85.30;99449.27;221345;1303;22576;-78
2023/11/18 13:09:23;;;;;;;7.40;5.70;;;;;;;2.79;85.35;99455.95;221296;1303;23099;-78
2023/11/18 13:14:30;;;;;;;7.80;6.20;;;;;;;2.72;85.18;99459.26;221564;1303;25345;-78
2023/11/18 13:19:34;;;;;;;8.60;6.50;;;;;;;2.66;85.77;99461.64;221627;1301;24240;-78
2023/11/18 13:24:44;;;;;;;8.50;7.10;;;;;;;2.65;85.56;99465.77;221486;1303;22653;-77
2023/11/18 13:29:50;;;;;;;9.20;7.60;;;;;;;2.69;85.64;99470.77;221518;1301;25443;-76
2023/11/18 13:34:53;;;;;;;7.90;6.70;;;;;;;2.75;85.84;99475.36;221411;1303;23038;-78
2023/11/18 13:39:56;;;;;;;8.00;6.50;;;;;;;2.78;85.53;99478.45;221794;1303;22612;-78
2023/11/18 13:45:28;;;;;;;6.70;5.90;;;;;;;2.76;85.26;99482.21;221530;1301;22681;-77
2023/11/18 13:50:42;;;;;;;8.20;5.90;;;;;;;2.70;84.64;99488.81;221400;1303;22972;-77
2023/11/18 13:55:48;;;;;;;7.90;6.50;;;;;;;2.62;84.60;99491.73;221675;1301;22607;-78
2023/11/18 14:00:51;;;;;;;8.70;7.00;;;;;;;2.55;84.32;99494.90;221501;1303;22581;-77
2023/11/18 14:05:58;;;;;;;10.20;7.70;;;;;;;2.48;84.54;99508.30;221480;1298;25472;-76
2023/11/18 14:11:00;;;;;;;9.20;8.20;;;;;;;2.42;84.87;99514.48;221635;1302;22609;-76
2023/11/18 14:16:09;;;;;;;10.30;8.30;;;;;;;2.40;84.69;99511.70;221529;1299;25468;-78
2023/11/18 14:21:14;;;;;;;12.20;9.20;;;;;;;2.39;84.65;99514.02;221359;1303;22625;-76
2023/11/18 14:26:16;;;;;;;12.10;8.90;;;;;;;2.39;85.20;99522.04;221313;1303;22647;-77
2023/11/18 14:31:19;;;;;;;11.60;9.60;;;;;;;2.39;84.84;99521.66;221648;1302;22599;-76
2023/11/18 14:36:22;;;;;;;11.00;8.50;;;;;;;2.38;84.94;99521.77;221441;1303;22594;-78
2023/11/18 14:41:26;;;;;;;11.40;9.10;;;;;;;2.36;84.48;99530.48;221576;1301;22597;-77
2023/11/18 14:46:31;;;;;;;13.30;9.70;;;;;;;2.32;84.32;99535.08;221670;1301;22574;-77
2023/11/18 14:51:34;;;;;;;10.00;8.60;;;;;;;2.29;84.67;99534.98;221558;1302;22774;-77
2023/11/18 14:56:36;;;;;;;10.50;8.20;;;;;;;2.26;84.37;99533.15;221620;1298;22612;-76
2023/11/18 15:01:43;;;;;;;12.00;8.70;;;;;;;2.21;84.41;99531.98;221597;1301;22601;-76
2023/11/18 15:06:46;;;;;;;12.80;8.90;;;;;;;2.18;84.42;99533.23;221580;1298;25336;-77
2023/11/18 15:11:50;;;;;;;10.80;7.80;;;;;;;2.16;84.62;99533.56;221526;1301;22671;-76
2023/11/18 15:16:53;;;;;;;11.20;8.10;;;;;;;2.15;84.47;99539.73;221487;1301;22572;-77
2023/11/18 15:21:55;;;;;;;10.80;8.60;;;;;;;2.15;84.31;99550.63;221573;1300;23360;-77
2023/11/18 15:26:58;;;;;;;10.90;8.00;;;;;;;2.15;84.22;99541.62;221573;1288;25322;-77
2023/11/18 15:32:00;;;;;;;10.00;8.30;;;;;;;2.12;84.16;99539.70;221282;1303;22625;-77
2023/11/18 15:37:03;;;;;;;11.30;8.10;;;;;;;2.10;84.08;99541.55;221512;1298;22685;-77
2023/11/18 15:42:05;;;;;;;10.90;8.40;;;;;;;2.09;84.18;99543.61;221649;1300;22711;-77
2023/11/18 15:47:09;;;;;;;15.10;10.60;;;;;;;2.09;84.36;99558.36;221531;1298;22728;-77
2023/11/18 15:52:12;;;;;;;20.50;13.70;;;;;;;2.10;84.08;99563.30;221676;1301;22629;-77
2023/11/18 15:57:16;;;;;;;17.60;12.80;;;;;;;2.10;84.13;99558.08;221680;1289;22575;-76
2023/11/18 16:02:18;;;;;;;16.60;11.90;;;;;;;2.09;84.34;99556.09;221652;1301;22567;-76
2023/11/18 16:07:20;;;;;;;17.50;12.90;;;;;;;2.07;84.02;99561.27;221630;1301;22657;-77
2023/11/18 16:12:22;;;;;;;21.70;15.60;;;;;;;2.06;84.02;99566.26;221543;1301;25199;-77
2023/11/18 16:17:24;;;;;;;20.40;14.40;;;;;;;2.07;84.51;99570.19;221527;1298;22574;-77
2023/11/18 16:22:26;;;;;;;17.30;12.10;;;;;;;2.04;83.95;99574.40;221353;1303;22958;-78
2023/11/18 16:27:29;;;;;;;17.50;12.80;;;;;;;1.99;83.92;99562.62;221496;1301;22608;-77
2023/11/18 16:32:31;;;;;;;20.10;13.30;;;;;;;1.94;83.77;99576.54;221538;1301;22602;-76
2023/11/18 16:37:33;;;;;;;17.00;12.50;;;;;;;1.89;83.96;99576.60;221672;1301;22644;-76
2023/11/18 16:42:36;;;;;;;20.70;14.20;;;;;;;1.85;84.16;99581.20;221650;1301;24335;-77
2023/11/18 16:47:39;;;;;;;22.30;14.90;;;;;;;1.86;84.37;99575.92;221808;1301;23067;-77
2023/11/18 16:52:41;;;;;;;23.30;15.50;;;;;;;1.86;84.29;99570.00;221616;1298;22572;-76
2023/11/18 16:57:44;;;;;;;25.70;17.40;;;;;;;1.88;84.37;99570.10;221672;1301;22747;-77
2023/11/18 17:02:56;;;;;;;23.80;16.00;;;;;;;1.88;84.13;99582.92;221714;1301;22622;-77
2023/11/18 17:08:01;;;;;;;24.20;16.60;;;;;;;1.87;84.37;99591.52;221673;1299;24965;-77
2023/11/18 17:13:06;;;;;;;20.90;15.70;;;;;;;1.85;84.38;99596.98;221305;1303;22618;-77
2023/11/18 17:18:12;;;;;;;21.00;15.10;;;;;;;1.87;84.62;99611.50;221520;1301;22590;-76
2023/11/18 17:23:14;;;;;;;21.80;15.90;;;;;;;1.87;84.58;99609.38;221693;1301;22659;-77
2023/11/18 17:28:17;;;;;;;24.70;17.70;;;;;;;1.90;84.46;99613.52;221416;1301;22599;-78
2023/11/18 17:33:19;;;;;;;22.50;16.00;;;;;;;1.91;84.49;99607.02;221559;1298;23218;-77
2023/11/18 17:38:21;;;;;;;25.40;17.30;;;;;;;1.93;84.98;99595.55;221549;1301;22597;-77
2023/11/18 17:43:23;;;;;;;26.90;18.40;;;;;;;1.96;84.62;99594.66;221481;1301;22584;-77
2023/11/18 17:48:25;;;;;;;22.90;16.60;;;;;;;1.97;84.85;99602.86;221491;1301;22706;-77
2023/11/18 17:53:29;;;;;;;25.70;17.70;;;;;;;1.97;84.48;99618.73;221305;1303;22596;-78
2023/11/18 17:58:31;;;;;;;25.00;17.20;;;;;;;1.97;84.65;99613.48;221555;1301;22951;-77
2023/11/18 18:03:33;;;;;;;29.30;19.00;;;;;;;1.98;84.67;99604.02;221402;1302;22579;-77
2023/11/18 18:08:35;;;;;;;26.30;17.10;;;;;;;1.99;84.39;99605.31;221592;1298;22583;-76
2023/11/18 18:13:37;;;;;;;24.50;15.50;;;;;;;1.96;84.50;99593.56;221420;1301;22627;-76
2023/11/18 18:18:40;;;;;;;24.30;15.50;;;;;;;1.94;84.24;99592.86;221546;1301;22578;-79
2023/11/18 18:23:42;;;;;;;19.20;12.30;;;;;;;1.94;84.18;99582.48;221446;1303;22902;-76
2023/11/18 18:28:44;;;;;;;23.80;16.10;;;;;;;1.89;83.64;99573.30;221719;1303;22562;-76
2023/11/18 18:33:47;;;;;;;24.50;16.70;;;;;;;1.84;83.89;99569.98;221658;1298;22765;-75
2023/11/18 18:38:49;;;;;;;21.10;14.20;;;;;;;1.83;83.61;99562.78;221572;1301;22605;-76
2023/11/18 18:43:51;;;;;;;22.60;14.80;;;;;;;1.84;83.73;99571.05;221657;1303;22632;-77
2023/11/18 18:48:54;;;;;;;27.00;17.40;;;;;;;1.86;83.69;99580.47;221640;1298;22749;-76
2023/11/18 18:53:56;;;;;;;28.00;17.10;;;;;;;1.90;84.12;99587.42;221681;1301;23065;-77
2023/11/18 18:58:58;;;;;;;26.70;16.70;;;;;;;1.92;84.05;99583.10;221619;1301;22578;-78
2023/11/18 19:04:01;;;;;;;27.80;17.80;;;;;;;1.95;83.85;99571.39;221616;1298;22565;-77
2023/11/18 19:09:04;;;;;;;22.80;15.10;;;;;;;1.96;83.78;99565.23;221434;1298;22591;-77
2023/11/18 19:14:08;;;;;;;24.10;15.50;;;;;;;1.93;83.64;99565.90;221430;1303;23068;-78
2023/11/18 19:19:11;;;;;;;24.80;15.90;;;;;;;1.87;83.47;99563.70;221700;1301;22620;-75
2023/11/18 19:24:14;;;;;;;24.10;16.20;;;;;;;1.85;83.93;99547.19;221261;1301;22585;-77
2023/11/18 19:29:16;;;;;;;23.60;15.70;;;;;;;1.86;83.68;99549.05;221613;1298;23552;-77
2023/11/18 19:34:21;;;;;;;23.50;16.00;;;;;;;1.81;83.33;99540.84;221497;1303;22571;-78
2023/11/18 19:39:23;;;;;;;24.00;16.50;;;;;;;1.80;83.70;99548.23;221628;1301;23363;-77
2023/11/18 19:44:26;;;;;;;27.70;17.40;;;;;;;1.82;83.96;99537.70;221573;1298;22589;-77
2023/11/18 19:49:31;;;;;;;25.80;16.30;;;;;;;1.85;83.97;99534.67;221688;1301;22615;-77
2023/11/18 19:54:35;;;;;;;26.70;17.00;;;;;;;1.87;83.84;99527.27;221695;1303;22625;-77
2023/11/18 19:59:37;;;;;;;24.50;16.40;;;;;;;1.89;83.90;99531.05;221811;1298;22619;-77
2023/11/18 20:04:41;;;;;;;28.20;18.20;;;;;;;1.90;83.80;99527.89;221656;1303;22571;-77
2023/11/18 20:09:44;;;;;;;26.00;16.50;;;;;;;1.93;83.97;99532.02;221617;1298;22713;-77
2023/11/18 20:14:48;;;;;;;25.50;17.20;;;;;;;1.94;84.35;99531.39;221653;1298;22590;-77
2023/11/18 20:19:52;;;;;;;26.30;17.30;;;;;;;1.97;83.64;99530.06;221563;1300;25389;-78
2023/11/18 20:24:55;;;;;;;30.60;17.70;;;;;;;1.99;83.89;99518.18;221534;1303;22597;-77
2023/11/18 20:29:57;;;;;;;27.30;17.10;;;;;;;1.98;83.44;99518.05;221553;1299;22835;-77
2023/11/18 20:35:00;;;;;;;26.80;16.20;;;;;;;1.85;82.98;99512.50;221501;1301;22585;-77
2023/11/18 20:40:06;;;;;;;25.10;16.50;;;;;;;1.65;83.29;99510.23;221351;1303;23198;-77
2023/11/18 20:45:13;;;;;;;25.00;15.40;;;;;;;1.52;83.67;99500.52;221389;1295;22615;-76
2023/11/18 20:50:16;;;;;;;29.20;17.40;;;;;;;1.44;83.42;99482.68;221581;1298;22577;-77
2023/11/18 20:55:18;;;;;;;26.20;16.00;;;;;;;1.41;84.09;99477.02;221393;1303;25003;-76
2023/11/18 21:00:28;;;;;;;27.60;16.60;;;;;;;1.34;83.51;99479.06;221476;1297;24321;-76
2023/11/18 21:05:30;;;;;;;26.30;15.00;;;;;;;1.27;83.87;99480.96;221495;1303;22595;-77
2023/11/18 21:10:35;;;;;;;25.50;16.10;;;;;;;1.24;83.42;99468.16;221585;1303;23044;-76
2023/11/18 21:15:39;;;;;;;26.20;16.30;;;;;;;1.22;83.82;99457.27;221456;1300;25312;-76
2023/11/18 21:20:42;;;;;;;28.40;17.20;;;;;;;1.16;83.57;99450.38;221691;1301;23685;-76
2023/11/18 21:25:45;;;;;;;28.20;17.80;;;;;;;1.08;83.53;99452.71;221628;1299;22604;-76
2023/11/18 21:30:47;;;;;;;36.00;19.40;;;;;;;0.98;84.08;99449.81;221664;1301;23190;-77
2023/11/18 21:35:53;;;;;;;35.30;19.20;;;;;;;0.90;84.35;99447.05;221577;1300;22611;-76
2023/11/18 21:40:55;;;;;;;33.00;19.30;;;;;;;0.88;84.49;99437.92;221432;1298;25320;-77
2023/11/18 21:45:58;;;;;;;33.50;19.80;;;;;;;0.82;84.18;99444.90;221460;1298;25538;-77
2023/11/18 21:51:02;;;;;;;37.60;20.30;;;;;;;0.79;84.72;99447.38;221477;1301;22573;-78
2023/11/18 21:56:05;;;;;;;34.10;20.00;;;;;;;0.78;84.69;99456.48;221732;1292;22582;-77
2023/11/18 22:01:07;;;;;;;45.00;23.20;;;;;;;0.76;84.84;99456.92;221609;1301;22579;-77
2023/11/18 22:06:10;;;;;;;43.40;23.60;;;;;;;0.76;84.83;99458.83;221577;1282;22732;-75
2023/11/18 22:11:15;;;;;;;44.60;26.20;;;;;;;0.68;84.77;99462.70;221591;1301;22582;-76
2023/11/18 22:16:19;;;;;;;44.20;24.60;;;;;;;0.57;85.01;99454.66;221670;1300;22714;-77
2023/11/18 22:21:23;;;;;;;46.50;26.20;;;;;;;0.43;84.89;99450.48;221668;1291;22598;-77
2023/11/18 22:26:29;;;;;;;50.20;27.40;;;;;;;0.29;84.81;99431.52;221553;1303;24299;-76
2023/11/18 22:31:31;;;;;;;50.40;28.30;;;;;;;0.17;85.01;99414.54;221728;1298;22600;-76
2023/11/18 22:36:34;;;;;;;52.00;25.80;;;;;;;0.06;85.27;99394.84;221696;1303;22602;-76
2023/11/18 22:41:40;;;;;;;51.20;26.20;;;;;;;-0.05;85.62;99394.76;221769;1301;25361;-77
2023/11/18 22:46:43;;;;;;;66.80;33.50;;;;;;;-0.14;85.66;99377.04;221548;1301;22702;-76
2023/11/18 22:51:45;;;;;;;103.50;48.80;;;;;;;-0.23;85.82;99385.46;221630;1303;23315;-76
2023/11/18 22:56:50;;;;;;;120.80;55.80;;;;;;;-0.30;85.73;99382.15;221551;1298;26456;-76
2023/11/18 23:01:52;;;;;;;140.30;72.90;;;;;;;-0.38;85.76;99376.09;221506;1303;22578;-77
2023/11/18 23:06:54;;;;;;;137.90;71.50;;;;;;;-0.44;85.90;99379.06;221783;1301;22576;-77
2023/11/18 23:11:57;;;;;;;137.10;63.10;;;;;;;-0.49;86.24;99381.68;221692;1301;24296;-76
2023/11/18 23:16:59;;;;;;;123.90;56.80;;;;;;;-0.55;86.40;99385.55;221697;1300;23030;-77
2023/11/18 23:22:09;;;;;;;;;;;;;;;-0.60;86.50;99379.17;221712;1299;22565;-77
2023/11/18 23:27:11;;;;;;;142.10;69.00;;;;;;;-0.68;86.30;99380.54;221712;1298;22622;-77
2023/11/18 23:32:13;;;;;;;160.20;77.00;;;;;;;-0.74;86.60;99374.53;221397;1303;22667;-77